Estestar — 3ECR8 — position and weather

sailwx.info

Track history (hours):
 
Tides and Currents Weather Stations Pressure Air Temp Water Temp Dewpoint Dewpoint Depression Visibility Wind Speed Wind Dir Waves Ship Positions

Estestar

Last reported at 2016-Dec-08 23:33 UTC. Time now 2016-Dec-09 00:07 UTC.
Position N 51°33' W 002°59'.

Length 133 m; draft 4.6 m.

Type: Cargo ship. MMSI: 371448000.

Date/timePositionNaut miles runAvg speedWind from/ knotsBaromVisibWave heightAir tempDewpointWater temp
2016-Dec-08 23:33N 51°33' W 002°59'0 0.0
2016-Dec-08 22:33N 51°33' W 002°59'0 0.0
2016-Dec-08 21:30N 51°33' W 002°59'0 0.0
2016-Dec-08 20:33N 51°33' W 002°59'0 0.0
2016-Dec-08 19:33N 51°33' W 002°59'0 0.0
2016-Dec-08 18:33N 51°33' W 002°59'0 0.0
2016-Dec-08 17:30N 51°33' W 002°59'0 0.0
2016-Dec-08 16:33N 51°33' W 002°59'0 0.0
2016-Dec-08 15:33N 51°33' W 002°59'0 0.0
2016-Dec-08 14:24N 51°33' W 002°59'0 0.0
2016-Dec-08 13:30N 51°33' W 002°59'0 0.0
2016-Dec-08 12:30N 51°33' W 002°59'0 0.0
2016-Dec-08 10:33N 51°33' W 002°59'0 0.0
2016-Dec-08 07:33N 51°33' W 002°59'0 0.0
2016-Dec-08 06:33N 51°33' W 002°59'0 0.0
2016-Dec-08 05:33N 51°33' W 002°59'0 0.0
2016-Dec-08 04:33N 51°33' W 002°59'0 0.0
2016-Dec-08 03:33N 51°33' W 002°59'0 0.0
2016-Dec-08 02:33N 51°33' W 002°59'0 0.0
2016-Dec-08 01:33N 51°33' W 002°59'0 0.0
2016-Dec-08 00:33N 51°33' W 002°59'0 0.0
2016-Dec-07 23:33N 51°33' W 002°59'0 0.0
2016-Dec-07 22:33N 51°33' W 002°59'0 0.0
2016-Dec-07 21:33N 51°33' W 002°59'0 0.0
2016-Dec-07 20:33N 51°33' W 002°59'0 0.0
2016-Dec-07 19:33N 51°33' W 002°59'0 0.0
2016-Dec-07 18:33N 51°33' W 002°59'0 0.0
2016-Dec-07 17:33N 51°33' W 002°59'0 0.0
2016-Dec-07 16:33N 51°33' W 002°59'0 0.0
2016-Dec-07 15:33N 51°33' W 002°59'0 0.0
2016-Dec-07 14:21N 51°33' W 002°59'0 0.0
2016-Dec-07 13:33N 51°33' W 002°59'0 0.0
2016-Dec-07 12:33N 51°33' W 002°59'0 0.0
2016-Dec-07 11:33N 51°33' W 002°59'0 0.0
2016-Dec-07 10:33N 51°33' W 002°59'0 0.0
2016-Dec-07 09:33N 51°33' W 002°59'0 0.0
2016-Dec-07 08:21N 51°33' W 002°59'0 0.0
2016-Dec-07 07:33N 51°33' W 002°59'0 0.0
2016-Dec-07 06:33N 51°33' W 002°59'0 0.0
2016-Dec-07 05:33N 51°33' W 002°59'0 0.0
2016-Dec-07 04:33N 51°33' W 002°59'0 0.0
2016-Dec-07 03:33N 51°33' W 002°59'0 0.0
2016-Dec-07 02:33N 51°33' W 002°59'0 0.0
2016-Dec-07 01:33N 51°33' W 002°59'0 0.0
2016-Dec-07 00:33N 51°33' W 002°59'0 0.0
2016-Dec-06 23:33N 51°33' W 002°59'0 0.0
2016-Dec-06 22:33N 51°33' W 002°59'0 0.0
2016-Dec-06 21:33N 51°33' W 002°59'0 0.0
2016-Dec-06 20:33N 51°33' W 002°59'0 0.0
2016-Dec-06 18:33N 51°33' W 002°59'0 0.0
2016-Dec-06 17:33N 51°33' W 002°59'0 0.0
2016-Dec-06 16:33N 51°33' W 002°59'0 0.0
2016-Dec-06 15:33N 51°33' W 002°59'0 0.0
2016-Dec-06 14:33N 51°33' W 002°59'0 0.0
2016-Dec-06 12:33N 51°33' W 002°59'0 0.0
2016-Dec-06 11:33N 51°33' W 002°59'0 0.0
2016-Dec-06 10:33N 51°33' W 002°59'0 0.0
2016-Dec-06 09:33N 51°33' W 002°59'0 0.0
2016-Dec-06 08:33N 51°33' W 002°59'0 0.0
2016-Dec-06 07:33N 51°33' W 002°59'0 0.0
2016-Dec-06 06:33N 51°33' W 002°59'0 0.0
2016-Dec-06 05:33N 51°33' W 002°59'0 0.0
2016-Dec-06 04:33N 51°33' W 002°59'0 0.0
2016-Dec-06 03:33N 51°33' W 002°59'0 0.0
2016-Dec-06 02:33N 51°33' W 002°59'0 0.0
2016-Dec-06 01:33N 51°33' W 002°59'0 0.0
2016-Dec-06 00:33N 51°33' W 002°59'0 0.0
2016-Dec-05 23:33N 51°33' W 002°59'0 0.4
2016-Dec-05 22:33N 51°33' W 002°59'4 3.5
2016-Dec-05 21:33N 51°30' W 003°00'14 9.9
2016-Dec-05 20:07N 51°21' W 003°19'38 7.6
2016-Dec-05 15:09N 51°14' W 004°18'6 9.0
2016-Dec-05 14:27N 51°10' W 004°25'8 8.7
2016-Dec-05 13:33N 51°05' W 004°35'9 8.5
2016-Dec-05 12:33N 50°59' W 004°45'9 9.5
2016-Dec-05 11:33N 50°53' W 004°56'10 9.8
2016-Dec-05 10:33N 50°46' W 005°08'1010.4
2016-Dec-05 09:33N 50°39' W 005°20'1110.7
2016-Dec-05 08:33N 50°32' W 005°32'1111.0
2016-Dec-05 07:33N 50°25' W 005°45'1110.5
2016-Dec-05 06:33N 50°15' W 005°52'1211.7
2016-Dec-05 05:32N 50°03' W 005°54'1110.8
2016-Dec-05 04:28N 49°52' W 005°58'11 9.9
2016-Dec-05 03:19N 49°41' W 006°04'8 9.4
2016-Dec-05 02:28N 49°34' W 006°09'8 9.0
2016-Dec-05 01:32N 49°26' W 006°14'399 8.3
2016-Dec-03 01:18N 43°15' W 009°43'810.3
2016-Dec-03 00:33N 43°07' W 009°46'1110.6
2016-Dec-02 23:32N 42°57' W 009°46'21610.3
2016-Dec-02 02:32N 39°21' W 009°50'1111.1
2016-Dec-02 01:33N 39°10' W 009°50'1110.7
2016-Dec-02 00:33N 38°59' W 009°50'1110.7
2016-Dec-01 23:33N 38°48' W 009°50'1110.7
2016-Dec-01 22:33N 38°38' W 009°49'1010.3
2016-Dec-01 21:33N 38°28' W 009°46'1010.3
2016-Dec-01 20:33N 38°18' W 009°43'1110.4
2016-Dec-01 19:32N 38°07' W 009°40'238 8.8
2016-Nov-30 16:33N 36°00' W 005°28'10 9.4
2016-Nov-30 15:32N 36°03' W 005°17'141 9.8
2016-Nov-30 01:05N 36°25' W 002°24'  
Track history (hours):
 
Tides and Currents Weather Stations Pressure Air Temp Water Temp Dewpoint Dewpoint Depression Visibility Wind Speed Wind Dir Waves Ship Positions

Estestar

Last reported at 2016-Dec-08 23:33 UTC. Time now 2016-Dec-09 00:07 UTC.
Position N 51°33' W 002°59'.

Length 133 m; draft 4.6 m.

Type: Cargo ship. MMSI: 371448000.

Date/timePositionNaut miles runAvg speedWind from/ knotsBaromVisibWave heightAir tempDewpointWater temp
2016-Dec-08 23:33N 51°33' W 002°59'0 0.0
2016-Dec-08 22:33N 51°33' W 002°59'0 0.0
2016-Dec-08 21:30N 51°33' W 002°59'0 0.0
2016-Dec-08 20:33N 51°33' W 002°59'0 0.0
2016-Dec-08 19:33N 51°33' W 002°59'0 0.0
2016-Dec-08 18:33N 51°33' W 002°59'0 0.0
2016-Dec-08 17:30N 51°33' W 002°59'0 0.0
2016-Dec-08 16:33N 51°33' W 002°59'0 0.0
2016-Dec-08 15:33N 51°33' W 002°59'0 0.0
2016-Dec-08 14:24N 51°33' W 002°59'0 0.0
2016-Dec-08 13:30N 51°33' W 002°59'0 0.0
2016-Dec-08 12:30N 51°33' W 002°59'0 0.0
2016-Dec-08 10:33N 51°33' W 002°59'0 0.0
2016-Dec-08 07:33N 51°33' W 002°59'0 0.0
2016-Dec-08 06:33N 51°33' W 002°59'0 0.0
2016-Dec-08 05:33N 51°33' W 002°59'0 0.0
2016-Dec-08 04:33N 51°33' W 002°59'0 0.0
2016-Dec-08 03:33N 51°33' W 002°59'0 0.0
2016-Dec-08 02:33N 51°33' W 002°59'0 0.0
2016-Dec-08 01:33N 51°33' W 002°59'0 0.0
2016-Dec-08 00:33N 51°33' W 002°59'0 0.0
2016-Dec-07 23:33N 51°33' W 002°59'0 0.0
2016-Dec-07 22:33N 51°33' W 002°59'0 0.0
2016-Dec-07 21:33N 51°33' W 002°59'0 0.0
2016-Dec-07 20:33N 51°33' W 002°59'0 0.0
2016-Dec-07 19:33N 51°33' W 002°59'0 0.0
2016-Dec-07 18:33N 51°33' W 002°59'0 0.0
2016-Dec-07 17:33N 51°33' W 002°59'0 0.0
2016-Dec-07 16:33N 51°33' W 002°59'0 0.0
2016-Dec-07 15:33N 51°33' W 002°59'0 0.0
2016-Dec-07 14:21N 51°33' W 002°59'0 0.0
2016-Dec-07 13:33N 51°33' W 002°59'0 0.0
2016-Dec-07 12:33N 51°33' W 002°59'0 0.0
2016-Dec-07 11:33N 51°33' W 002°59'0 0.0
2016-Dec-07 10:33N 51°33' W 002°59'0 0.0
2016-Dec-07 09:33N 51°33' W 002°59'0 0.0
2016-Dec-07 08:21N 51°33' W 002°59'0 0.0
2016-Dec-07 07:33N 51°33' W 002°59'0 0.0
2016-Dec-07 06:33N 51°33' W 002°59'0 0.0
2016-Dec-07 05:33N 51°33' W 002°59'0 0.0
2016-Dec-07 04:33N 51°33' W 002°59'0 0.0
2016-Dec-07 03:33N 51°33' W 002°59'0 0.0
2016-Dec-07 02:33N 51°33' W 002°59'0 0.0
2016-Dec-07 01:33N 51°33' W 002°59'0 0.0
2016-Dec-07 00:33N 51°33' W 002°59'0 0.0
2016-Dec-06 23:33N 51°33' W 002°59'0 0.0
2016-Dec-06 22:33N 51°33' W 002°59'0 0.0
2016-Dec-06 21:33N 51°33' W 002°59'0 0.0
2016-Dec-06 20:33N 51°33' W 002°59'0 0.0
2016-Dec-06 18:33N 51°33' W 002°59'0 0.0
2016-Dec-06 17:33N 51°33' W 002°59'0 0.0
2016-Dec-06 16:33N 51°33' W 002°59'0 0.0
2016-Dec-06 15:33N 51°33' W 002°59'0 0.0
2016-Dec-06 14:33N 51°33' W 002°59'0 0.0
2016-Dec-06 12:33N 51°33' W 002°59'0 0.0
2016-Dec-06 11:33N 51°33' W 002°59'0 0.0
2016-Dec-06 10:33N 51°33' W 002°59'0 0.0
2016-Dec-06 09:33N 51°33' W 002°59'0 0.0
2016-Dec-06 08:33N 51°33' W 002°59'0 0.0
2016-Dec-06 07:33N 51°33' W 002°59'0 0.0
2016-Dec-06 06:33N 51°33' W 002°59'0 0.0
2016-Dec-06 05:33N 51°33' W 002°59'0 0.0
2016-Dec-06 04:33N 51°33' W 002°59'0 0.0
2016-Dec-06 03:33N 51°33' W 002°59'0 0.0
2016-Dec-06 02:33N 51°33' W 002°59'0 0.0
2016-Dec-06 01:33N 51°33' W 002°59'0 0.0
2016-Dec-06 00:33N 51°33' W 002°59'0 0.0
2016-Dec-05 23:33N 51°33' W 002°59'0 0.4
2016-Dec-05 22:33N 51°33' W 002°59'4 3.5
2016-Dec-05 21:33N 51°30' W 003°00'14 9.9
2016-Dec-05 20:07N 51°21' W 003°19'38 7.6
2016-Dec-05 15:09N 51°14' W 004°18'6 9.0
2016-Dec-05 14:27N 51°10' W 004°25'8 8.7
2016-Dec-05 13:33N 51°05' W 004°35'9 8.5
2016-Dec-05 12:33N 50°59' W 004°45'9 9.5
2016-Dec-05 11:33N 50°53' W 004°56'10 9.8
2016-Dec-05 10:33N 50°46' W 005°08'1010.4
2016-Dec-05 09:33N 50°39' W 005°20'1110.7
2016-Dec-05 08:33N 50°32' W 005°32'1111.0
2016-Dec-05 07:33N 50°25' W 005°45'1110.5
2016-Dec-05 06:33N 50°15' W 005°52'1211.7
2016-Dec-05 05:32N 50°03' W 005°54'1110.8
2016-Dec-05 04:28N 49°52' W 005°58'11 9.9
2016-Dec-05 03:19N 49°41' W 006°04'8 9.4
2016-Dec-05 02:28N 49°34' W 006°09'8 9.0
2016-Dec-05 01:32N 49°26' W 006°14'399 8.3
2016-Dec-03 01:18N 43°15' W 009°43'810.3
2016-Dec-03 00:33N 43°07' W 009°46'1110.6
2016-Dec-02 23:32N 42°57' W 009°46'21610.3
2016-Dec-02 02:32N 39°21' W 009°50'1111.1
2016-Dec-02 01:33N 39°10' W 009°50'1110.7
2016-Dec-02 00:33N 38°59' W 009°50'1110.7
2016-Dec-01 23:33N 38°48' W 009°50'1110.7
2016-Dec-01 22:33N 38°38' W 009°49'1010.3
2016-Dec-01 21:33N 38°28' W 009°46'1010.3
2016-Dec-01 20:33N 38°18' W 009°43'1110.4
2016-Dec-01 19:32N 38°07' W 009°40'238 8.8
2016-Nov-30 16:33N 36°00' W 005°28'10 9.4
2016-Nov-30 15:32N 36°03' W 005°17'141 9.8
2016-Nov-30 01:05N 36°25' W 002°24'  

Dump ship's entire track history